Time;durP1;ratioP1;P1;durP2;ratioP2;P2;SDS_P1;SDS_P2;PMS_P1;PMS_P2;Temp;Humidity;BMP_temperature;BMP_pressure;BME280_temperature;BME280_humidity;BME280_pressure;Samples;Min_cycle;Max_cycle;Signal;HPM_P1;HPM_P2
2022/11/17 00:03:57;;;;;;;0.00;0.00;;;;;;;8.94;100.00;99397.63;10440392;28;20041;-78
2022/11/17 00:08:59;;;;;;;0.17;0.13;;;;;;;8.86;100.00;99390.69;10444980;28;20045;-79
2022/11/17 00:24:41;;;;;;;0.00;0.00;;;;;;;8.53;100.00;99394.66;10443721;28;20526;-79
2022/11/17 00:29:43;;;;;;;1.05;0.82;;;;;;;8.54;100.00;99398.13;10430999;28;20492;-80
2022/11/17 00:34:44;;;;;;;0.98;0.45;;;;;;;8.55;100.00;99482.84;10479301;28;20071;-79
2022/11/17 00:39:46;;;;;;;0.47;0.47;;;;;;;8.49;100.00;99494.75;10484614;28;20120;-80
2022/11/17 00:44:47;;;;;;;0.17;0.00;;;;;;;8.55;100.00;99493.09;10421604;28;20056;-79
2022/11/17 00:49:49;;;;;;;3.17;0.30;;;;;;;8.47;100.00;99487.00;10467545;28;20512;-79
2022/11/17 00:54:51;;;;;;;0.00;0.00;;;;;;;8.60;100.00;99479.47;10460255;28;20441;-80
2022/11/17 00:59:52;;;;;;;0.00;0.00;;;;;;;8.50;100.00;99468.22;10442810;28;20095;-80
2022/11/17 01:04:54;;;;;;;0.38;0.38;;;;;;;8.51;100.00;99468.25;10426397;28;20055;-78
2022/11/17 01:09:56;;;;;;;0.25;0.20;;;;;;;8.49;100.00;99457.09;10442527;28;20048;-79
2022/11/17 01:14:58;;;;;;;2.20;2.00;;;;;;;8.47;100.00;99463.06;10419018;28;20048;-79
2022/11/17 01:20:00;;;;;;;0.57;0.00;;;;;;;8.50;100.00;99469.09;10443330;28;20114;-79
2022/11/17 01:25:03;;;;;;;0.15;0.15;;;;;;;8.49;100.00;99454.53;10440610;28;20099;-79
2022/11/17 01:30:06;;;;;;;0.13;0.13;;;;;;;8.50;100.00;99473.34;10439819;28;20037;-80
2022/11/17 01:35:07;;;;;;;0.20;0.20;;;;;;;8.47;100.00;99453.66;10438526;28;20189;-80
2022/11/17 01:40:12;;;;;;;0.28;0.20;;;;;;;8.49;100.00;99451.97;10434134;28;20049;-79
2022/11/17 01:45:20;;;;;;;0.20;0.20;;;;;;;8.58;100.00;99461.47;10438440;28;20119;-79
2022/11/17 01:50:30;;;;;;;0.10;0.10;;;;;;;8.57;100.00;99439.19;10438287;28;20037;-80
2022/11/17 01:55:37;;;;;;;0.35;0.35;;;;;;;8.56;100.00;99430.66;10445011;28;20122;-79
2022/11/17 02:00:39;;;;;;;0.15;0.10;;;;;;;8.72;100.00;99370.03;10444567;28;20052;-80
2022/11/17 02:05:50;;;;;;;0.00;0.00;;;;;;;8.72;100.00;99367.47;10439146;28;20043;-79
2022/11/17 02:10:52;;;;;;;0.38;0.20;;;;;;;8.77;100.00;99372.63;10437961;28;20053;-80
2022/11/17 02:15:54;;;;;;;0.00;0.00;;;;;;;8.87;100.00;99387.28;10438287;28;20049;-79
2022/11/17 02:21:14;;;;;;;0.38;0.10;;;;;;;8.84;100.00;99381.25;10437188;28;20412;-79
2022/11/17 02:27:06;;;;;;;0.00;0.00;;;;;;;8.91;100.00;99397.56;10448713;28;20072;-79
2022/11/17 02:32:30;;;;;;;2.80;0.70;;;;;;;8.92;100.00;99400.19;10421026;28;20451;-80
2022/11/17 02:37:54;;;;;;;0.75;0.28;;;;;;;8.94;100.00;99397.63;10433557;28;20057;-78
2022/11/17 02:48:31;;;;;;;0.00;0.00;;;;;;;9.03;100.00;99397.69;10440411;28;20053;-78
2022/11/17 02:53:33;;;;;;;1.40;0.15;;;;;;;9.03;100.00;99402.84;10441387;28;20052;-78
2022/11/17 02:58:35;;;;;;;0.10;0.10;;;;;;;9.01;100.00;99395.09;10439059;28;20083;-79
2022/11/17 03:03:40;;;;;;;0.08;0.08;;;;;;;9.05;100.00;99385.69;10421840;28;20102;-79
2022/11/17 03:08:51;;;;;;;0.00;0.00;;;;;;;9.10;100.00;99383.16;10434553;28;20053;-81
2022/11/17 03:14:06;;;;;;;0.00;0.00;;;;;;;9.05;100.00;99384.00;10445954;28;20045;-80
2022/11/17 03:19:14;;;;;;;0.30;0.30;;;;;;;9.07;100.00;99378.88;10434289;28;20049;-78
2022/11/17 03:24:29;;;;;;;0.08;0.03;;;;;;;9.14;100.00;99370.34;10440189;28;20048;-78
2022/11/17 03:29:34;;;;;;;0.00;0.00;;;;;;;9.13;100.00;99358.34;10433964;28;20440;-79
2022/11/17 03:34:41;;;;;;;0.00;0.00;;;;;;;9.15;100.00;99361.81;10451512;28;20075;-80
2022/11/17 03:39:48;;;;;;;0.65;0.20;;;;;;;9.23;100.00;99340.44;10414269;28;20102;-78
2022/11/17 03:44:55;;;;;;;0.03;0.03;;;;;;;9.33;100.00;99329.38;10421308;28;20094;-82
2022/11/17 03:50:04;;;;;;;0.40;0.30;;;;;;;9.32;100.00;99323.34;10436507;28;20270;-79
2022/11/17 03:55:07;;;;;;;0.83;0.30;;;;;;;9.31;100.00;99310.50;10430078;28;20475;-80
2022/11/17 04:00:13;;;;;;;0.03;0.03;;;;;;;9.34;100.00;99298.53;10442369;28;20287;-80
2022/11/17 04:05:16;;;;;;;5.07;1.50;;;;;;;9.36;100.00;99293.38;10428122;28;20053;-81
2022/11/17 04:10:21;;;;;;;0.08;0.08;;;;;;;9.28;100.00;99292.50;10462852;28;20033;-83
2022/11/17 04:20:44;;;;;;;0.75;0.55;;;;;;;9.07;100.00;99291.53;10458662;28;20060;-84
2022/11/17 04:31:14;;;;;;;0.10;0.10;;;;;;;8.96;100.00;99288.03;10441367;28;20401;-82
2022/11/17 04:36:22;;;;;;;0.00;0.00;;;;;;;8.99;100.00;99288.03;10467216;28;20131;-79
2022/11/17 04:46:49;;;;;;;0.43;0.35;;;;;;;8.95;100.00;99283.75;10447287;28;20041;-80
2022/11/17 04:51:52;;;;;;;0.10;0.10;;;;;;;8.97;100.00;99282.91;10448019;28;20500;-80
2022/11/17 04:56:54;;;;;;;0.10;0.10;;;;;;;9.01;100.00;99291.50;10442671;28;20041;-81
2022/11/17 05:01:55;;;;;;;0.10;0.10;;;;;;;9.05;100.00;99282.94;10465760;28;20488;-81
2022/11/17 05:07:06;;;;;;;0.20;0.20;;;;;;;9.06;100.00;99279.53;10447423;28;20087;-80
2022/11/17 05:17:28;;;;;;;0.32;0.20;;;;;;;9.05;100.00;99264.97;10464299;28;20086;-81
2022/11/17 05:27:52;;;;;;;0.20;0.15;;;;;;;9.07;100.00;99259.84;10460436;28;20400;-79
2022/11/17 05:32:53;;;;;;;0.00;0.00;;;;;;;9.07;100.00;99255.56;10429135;28;20102;-79
2022/11/17 05:37:55;;;;;;;0.00;0.00;;;;;;;9.09;100.00;99253.00;10443244;28;20090;-80
2022/11/17 05:42:56;;;;;;;0.10;0.00;;;;;;;9.08;100.00;99244.44;10441859;28;20049;-79
2022/11/17 05:47:59;;;;;;;0.10;0.10;;;;;;;9.15;100.00;99235.91;10441271;28;20513;-80
2022/11/17 05:53:01;;;;;;;0.25;0.20;;;;;;;9.15;100.00;99222.22;10447043;28;20036;-80
2022/11/17 05:58:09;;;;;;;0.20;0.20;;;;;;;9.15;100.00;99233.34;10442515;28;20500;-80
2022/11/17 06:03:29;;;;;;;0.20;0.15;;;;;;;9.10;100.00;99235.03;10428915;28;20049;-80
2022/11/17 06:08:31;;;;;;;0.00;0.00;;;;;;;9.07;100.00;99222.16;10450209;28;20049;-82
2022/11/17 06:13:32;;;;;;;0.10;0.08;;;;;;;9.06;100.00;99207.59;10421405;28;20401;-81
2022/11/17 06:18:40;;;;;;;0.40;0.30;;;;;;;9.07;100.00;99211.88;10455477;28;20075;-83
2022/11/17 06:23:45;;;;;;;0.08;0.00;;;;;;;9.07;100.00;99214.44;10438543;28;20047;-84
2022/11/17 06:28:49;;;;;;;0.00;0.00;;;;;;;9.08;100.00;99205.91;10424469;28;20409;-81
2022/11/17 06:33:50;;;;;;;0.10;0.10;;;;;;;9.10;100.00;99221.31;10430223;28;20049;-82
2022/11/17 06:38:53;;;;;;;0.00;0.00;;;;;;;9.08;100.00;99223.88;10448933;28;20036;-81
2022/11/17 06:43:55;;;;;;;0.10;0.08;;;;;;;9.05;100.00;99231.56;10423595;28;20103;-80
2022/11/17 06:48:56;;;;;;;0.00;0.00;;;;;;;9.14;100.00;99241.88;10438274;28;20045;-80
2022/11/17 06:53:58;;;;;;;0.20;0.20;;;;;;;9.16;100.00;99254.75;10449446;28;20037;-80
2022/11/17 06:59:07;;;;;;;0.03;0.03;;;;;;;9.11;100.00;99249.59;10446543;28;20091;-79
2022/11/17 07:04:09;;;;;;;0.00;0.00;;;;;;;9.14;100.00;99267.59;10445966;28;20044;-80
2022/11/17 07:09:10;;;;;;;0.10;0.10;;;;;;;9.18;100.00;99279.63;10446386;28;20116;-81
2022/11/17 07:14:17;;;;;;;2.92;0.32;;;;;;;9.17;100.00;99293.31;10448851;28;20060;-78
2022/11/17 07:19:19;;;;;;;0.75;0.30;;;;;;;9.34;100.00;99295.13;10447552;28;20440;-79
2022/11/17 07:24:21;;;;;;;0.20;0.20;;;;;;;9.32;100.00;99291.66;10458155;28;20044;-79
2022/11/17 07:29:24;;;;;;;0.85;0.30;;;;;;;9.35;100.00;99291.66;10466113;28;20059;-78
2022/11/17 07:34:26;;;;;;;0.43;0.20;;;;;;;9.33;100.00;99295.97;10446244;28;20045;-78
2022/11/17 07:39:27;;;;;;;0.45;0.15;;;;;;;9.35;100.00;99295.13;10431080;28;20037;-79
2022/11/17 07:44:29;;;;;;;0.17;0.08;;;;;;;9.32;100.00;99307.09;10457171;28;20565;-79
2022/11/17 07:49:31;;;;;;;3.60;0.50;;;;;;;9.28;100.00;99319.06;10464689;28;20488;-79
2022/11/17 07:54:32;;;;;;;0.95;0.93;;;;;;;9.29;100.00;99327.63;10461656;28;20053;-79
2022/11/17 07:59:34;;;;;;;2.58;0.40;;;;;;;9.24;100.00;99334.44;10447712;28;20049;-78
2022/11/17 08:04:37;;;;;;;0.08;0.00;;;;;;;9.27;100.00;99344.75;10472070;28;20049;-78
2022/11/17 08:09:39;;;;;;;0.10;0.10;;;;;;;9.30;100.00;99355.03;10445820;28;20052;-78
2022/11/17 08:14:44;;;;;;;0.80;0.75;;;;;;;9.35;100.00;99358.50;10421379;28;20049;-78
2022/11/17 08:19:46;;;;;;;0.25;0.25;;;;;;;9.37;100.00;99377.34;10442977;28;20067;-79
2022/11/17 08:24:51;;;;;;;0.10;0.00;;;;;;;9.45;100.00;99383.41;10447495;28;20107;-78
2022/11/17 08:29:53;;;;;;;0.00;0.00;;;;;;;9.49;100.00;99376.56;10463768;28;20079;-77
2022/11/17 08:34:55;;;;;;;0.08;0.08;;;;;;;9.48;100.00;99400.56;10454934;28;20045;-79
2022/11/17 08:39:58;;;;;;;0.08;0.00;;;;;;;9.53;100.00;99399.75;10484092;28;20037;-80
2022/11/17 08:45:00;;;;;;;0.20;0.20;;;;;;;9.58;100.00;99391.19;10471277;28;20068;-78
2022/11/17 08:50:05;;;;;;;0.00;0.00;;;;;;;9.58;100.00;99401.47;10442049;28;20114;-80
2022/11/17 08:55:08;;;;;;;0.00;0.00;;;;;;;9.61;100.00;99384.34;10455930;28;20443;-78
2022/11/17 09:00:11;;;;;;;0.00;0.00;;;;;;;9.60;100.00;99374.06;10434470;28;20037;-78
2022/11/17 09:05:13;;;;;;;0.00;0.00;;;;;;;9.59;100.00;99359.47;10431107;28;20041;-79
2022/11/17 09:10:21;;;;;;;0.10;0.10;;;;;;;9.60;100.00;99358.63;10441463;28;20128;-79
2022/11/17 09:15:23;;;;;;;0.00;0.00;;;;;;;9.58;100.00;99350.03;10431921;28;20052;-79
2022/11/17 09:20:25;;;;;;;0.00;0.00;;;;;;;9.60;100.00;99353.50;10449731;28;20052;-79
2022/11/17 09:25:28;;;;;;;7.82;0.15;;;;;;;9.56;100.00;99346.63;10448927;28;20163;-79
2022/11/17 09:30:30;;;;;;;0.00;0.00;;;;;;;9.47;100.00;99353.44;10444933;28;20045;-79
2022/11/17 09:35:31;;;;;;;0.03;0.03;;;;;;;9.47;100.00;99353.44;10454756;28;20099;-79
2022/11/17 09:40:33;;;;;;;0.03;0.03;;;;;;;9.43;100.00;99350.84;10470941;28;20090;-79
2022/11/17 09:45:38;;;;;;;0.22;0.03;;;;;;;9.39;100.00;99360.25;10465100;28;20037;-78
2022/11/17 09:50:40;;;;;;;0.25;0.25;;;;;;;9.31;100.00;99354.19;10471573;28;20041;-78
2022/11/17 09:55:54;;;;;;;0.10;0.10;;;;;;;9.30;100.00;99357.63;10451018;28;20044;-79
2022/11/17 10:00:56;;;;;;;0.00;0.00;;;;;;;9.50;100.00;99353.44;10459856;28;20455;-79
2022/11/17 10:06:02;;;;;;;0.00;0.00;;;;;;;9.35;100.00;99351.66;10459352;28;20415;-78
2022/11/17 10:16:32;;;;;;;0.00;0.00;;;;;;;9.35;100.00;99349.09;10472823;28;20149;-79
2022/11/17 10:21:35;;;;;;;0.00;0.00;;;;;;;9.40;100.00;99354.25;10455189;28;20118;-79
2022/11/17 10:26:48;;;;;;;0.10;0.10;;;;;;;9.34;100.00;99357.66;10452947;28;20517;-78
2022/11/17 10:31:49;;;;;;;0.00;0.00;;;;;;;9.35;100.00;99368.78;10458756;28;20039;-78
2022/11/17 10:37:03;;;;;;;0.00;0.00;;;;;;;9.36;100.00;99375.63;10455355;28;20074;-78
2022/11/17 10:42:31;;;;;;;0.00;0.00;;;;;;;9.41;100.00;99389.41;10463468;28;20434;-78
2022/11/17 10:47:39;;;;;;;0.00;0.00;;;;;;;9.69;100.00;99392.13;10448319;28;20044;-77
2022/11/17 10:52:41;;;;;;;0.00;0.00;;;;;;;9.88;100.00;99374.19;10462068;28;20044;-78
2022/11/17 10:57:51;;;;;;;0.00;0.00;;;;;;;9.82;100.00;99360.47;10449388;28;20542;-78
2022/11/17 11:03:06;;;;;;;0.00;0.00;;;;;;;9.76;100.00;99337.28;10451163;28;20068;-78
2022/11/17 11:08:24;;;;;;;0.00;0.00;;;;;;;9.93;100.00;99334.78;10458749;28;20052;-78
2022/11/17 11:13:41;;;;;;;0.00;0.00;;;;;;;10.03;100.00;99322.78;10464744;28;20112;-79
2022/11/17 11:18:52;;;;;;;0.00;0.00;;;;;;;10.11;100.00;99321.09;10438888;28;20430;-79
2022/11/17 11:23:55;;;;;;;1.17;0.95;;;;;;;10.34;100.00;99307.41;10449274;28;20041;-78
2022/11/17 11:29:14;;;;;;;1.65;0.35;;;;;;;10.32;100.00;99280.78;10426904;28;20053;-78
2022/11/17 11:34:48;;;;;;;0.00;0.00;;;;;;;10.45;100.00;99259.41;10450481;28;20056;-79
2022/11/17 11:40:14;;;;;;;1.65;0.52;;;;;;;10.38;100.00;99229.38;10426374;28;20041;-80
2022/11/17 11:45:28;;;;;;;0.00;0.00;;;;;;;10.46;100.00;99199.31;10432221;28;20103;-79
2022/11/17 11:50:34;;;;;;;0.00;0.00;;;;;;;10.83;100.00;99161.47;10427861;28;20052;-79
2022/11/17 11:55:52;;;;;;;6.30;0.28;;;;;;;11.07;100.00;99047.97;10433692;28;20083;-80
2022/11/17 12:01:05;;;;;;;0.75;0.57;;;;;;;10.87;100.00;99031.78;10410519;28;20060;-81
2022/11/17 12:11:59;;;;;;;0.00;0.00;;;;;;;10.71;100.00;99018.13;10432445;28;20041;-80
2022/11/17 12:17:17;;;;;;;0.00;0.00;;;;;;;10.74;100.00;99006.09;10424244;28;20102;-80
2022/11/17 12:22:43;;;;;;;0.13;0.00;;;;;;;10.66;100.00;99009.56;10419536;28;20053;-81
2022/11/17 12:27:48;;;;;;;0.00;0.00;;;;;;;10.57;100.00;99020.78;10433083;28;20484;-82
2022/11/17 12:32:51;;;;;;;0.00;0.00;;;;;;;10.56;100.00;99034.50;10423379;28;20067;-82
2022/11/17 12:38:15;;;;;;;0.00;0.00;;;;;;;10.72;100.00;99005.25;10420417;28;20067;-81
2022/11/17 12:43:23;;;;;;;3.20;1.33;;;;;;;10.62;100.00;99027.63;10416490;28;20044;-81
2022/11/17 12:48:32;;;;;;;0.90;0.30;;;;;;;10.61;100.00;99027.63;10427268;28;20140;-81
2022/11/17 12:54:14;;;;;;;0.00;0.00;;;;;;;10.61;100.00;99027.63;10428854;28;20045;-81
2022/11/17 12:59:55;;;;;;;0.10;0.10;;;;;;;10.56;100.00;99037.06;10456476;28;20051;-80
2022/11/17 13:05:02;;;;;;;0.00;0.00;;;;;;;10.62;100.00;99039.63;10413905;28;20053;-80
2022/11/17 13:10:04;;;;;;;0.22;0.00;;;;;;;10.46;100.00;99060.28;10416667;28;20481;-80
2022/11/17 13:15:19;;;;;;;0.08;0.00;;;;;;;10.33;100.00;99089.47;10421057;28;20462;-81
2022/11/17 13:20:29;;;;;;;0.10;0.10;;;;;;;10.27;100.00;99090.34;10457026;28;20424;-80
2022/11/17 13:25:33;;;;;;;0.20;0.20;;;;;;;10.14;100.00;99104.94;10443611;28;20067;-83
2022/11/17 13:30:36;;;;;;;0.00;0.00;;;;;;;9.96;100.00;99136.69;10466450;28;20045;-81
2022/11/17 13:35:38;;;;;;;0.10;0.05;;;;;;;9.98;100.00;99152.13;10472276;28;20546;-83
2022/11/17 13:40:42;;;;;;;12.70;0.10;;;;;;;9.99;100.00;99164.13;10414812;28;20061;-83
2022/11/17 13:45:45;;;;;;;0.00;0.00;;;;;;;9.93;100.00;99161.56;10448290;28;20049;-81
2022/11/17 13:50:49;;;;;;;0.30;0.25;;;;;;;9.90;100.00;99171.84;10427106;28;20041;-80
2022/11/17 13:55:51;;;;;;;4.00;0.10;;;;;;;9.86;100.00;99172.72;10416659;28;20044;-81
2022/11/17 14:00:58;;;;;;;0.35;0.28;;;;;;;9.81;100.00;99188.97;10455351;28;20037;-80
2022/11/17 14:06:06;;;;;;;1.73;1.50;;;;;;;9.76;100.00;99203.56;10446594;28;20041;-80
2022/11/17 14:11:11;;;;;;;4.40;2.53;;;;;;;9.79;100.00;99206.13;10426785;28;20048;-80
2022/11/17 14:16:39;;;;;;;1.25;1.00;;;;;;;9.73;100.00;99206.09;10458209;28;20041;-80
2022/11/17 14:22:00;;;;;;;9.32;4.13;;;;;;;9.74;100.00;99207.81;10462412;28;20068;-80
2022/11/17 14:27:11;;;;;;;3.22;1.55;;;;;;;9.77;100.00;99213.00;10415652;28;20049;-80
2022/11/17 14:32:13;;;;;;;1.73;0.98;;;;;;;9.74;100.00;99224.97;10467958;28;20037;-79
2022/11/17 14:37:15;;;;;;;2.78;1.23;;;;;;;9.76;100.00;99223.25;10456587;28;20500;-79
2022/11/17 14:42:17;;;;;;;1.95;1.05;;;;;;;9.82;100.00;99221.56;10440914;28;20076;-78
2022/11/17 14:47:18;;;;;;;4.30;3.08;;;;;;;9.78;100.00;99219.84;10435874;28;20503;-79
2022/11/17 14:52:20;;;;;;;3.22;2.10;;;;;;;9.81;100.00;99212.13;10441460;28;20555;-79
2022/11/17 14:57:21;;;;;;;0.32;0.32;;;;;;;9.93;100.00;99197.59;10455215;28;20102;-79
2022/11/17 15:02:23;;;;;;;0.85;0.68;;;;;;;9.98;100.00;99185.56;10436639;28;20511;-78
2022/11/17 15:07:25;;;;;;;0.25;0.25;;;;;;;9.97;100.00;99178.69;10436865;28;20463;-79
2022/11/17 15:12:28;;;;;;;0.38;0.38;;;;;;;10.12;100.00;99167.56;10453411;28;20484;-80
2022/11/17 15:17:30;;;;;;;0.32;0.32;;;;;;;10.06;100.00;99163.28;10436161;28;20044;-79
2022/11/17 15:22:32;;;;;;;0.10;0.10;;;;;;;10.12;100.00;99157.28;10434615;28;20044;-79
2022/11/17 15:27:33;;;;;;;6.25;1.65;;;;;;;10.09;100.00;99147.81;10436070;28;20037;-79
2022/11/17 15:32:36;;;;;;;0.10;0.10;;;;;;;10.09;100.00;99158.13;10417800;28;20084;-80
2022/11/17 15:37:37;;;;;;;8.85;0.55;;;;;;;10.16;100.00;99158.97;10419174;28;20127;-79
2022/11/17 15:42:39;;;;;;;0.10;0.10;;;;;;;10.21;100.00;99153.84;10434695;28;20045;-79
2022/11/17 15:47:40;;;;;;;0.00;0.00;;;;;;;10.14;100.00;99151.28;10421847;28;20493;-78
2022/11/17 15:52:42;;;;;;;1.13;0.20;;;;;;;10.10;100.00;99164.97;10459755;28;20451;-79
2022/11/17 15:58:04;;;;;;;1.63;1.02;;;;;;;10.14;100.00;99169.28;10456156;28;20131;-79
2022/11/17 16:03:06;;;;;;;1.00;0.63;;;;;;;10.09;100.00;99167.56;10443444;28;20090;-79
2022/11/17 16:08:07;;;;;;;2.42;1.52;;;;;;;10.06;100.00;99178.72;10442530;28;20044;-79
2022/11/17 16:13:09;;;;;;;2.33;1.25;;;;;;;9.98;100.00;99191.56;10460413;28;20115;-79
2022/11/17 16:18:11;;;;;;;1.77;1.33;;;;;;;10.02;100.00;99191.56;10442574;28;20090;-79
2022/11/17 16:23:14;;;;;;;1.13;0.88;;;;;;;9.95;100.00;99201.00;10422228;28;20071;-78
2022/11/17 16:28:15;;;;;;;1.70;0.95;;;;;;;9.96;100.00;99218.16;10436155;28;20049;-79
2022/11/17 16:33:17;;;;;;;1.10;0.52;;;;;;;9.95;100.00;99211.28;10441762;28;20056;-80
2022/11/17 16:38:19;;;;;;;2.03;1.30;;;;;;;9.82;100.00;99211.28;10434537;28;20099;-80
2022/11/17 16:43:20;;;;;;;4.32;3.40;;;;;;;9.81;100.00;99217.25;10440834;28;20095;-79
2022/11/17 16:48:22;;;;;;;3.20;2.70;;;;;;;9.83;100.00;99228.44;10459624;28;20037;-80
2022/11/17 16:53:24;;;;;;;2.03;1.42;;;;;;;9.85;100.00;99225.84;10458036;28;20064;-80
2022/11/17 16:58:25;;;;;;;1.33;1.00;;;;;;;9.69;100.00;99230.13;10440538;28;20064;-80
2022/11/17 17:03:27;;;;;;;1.88;1.65;;;;;;;9.64;100.00;99232.66;10426711;28;20296;-80
2022/11/17 17:08:29;;;;;;;2.63;1.98;;;;;;;9.62;100.00;99236.09;10462309;28;20091;-77
2022/11/17 17:13:32;;;;;;;1.08;0.55;;;;;;;9.70;100.00;99231.84;10444491;28;20051;-78
2022/11/17 17:18:34;;;;;;;1.23;0.80;;;;;;;9.52;100.00;99241.19;10444370;28;20044;-77
2022/11/17 17:23:35;;;;;;;0.22;0.22;;;;;;;9.46;100.00;99254.03;10427500;28;20057;-76
2022/11/17 17:28:42;;;;;;;0.47;0.38;;;;;;;9.39;100.00;99260.00;10443685;28;20111;-76
2022/11/17 17:33:44;;;;;;;0.28;0.20;;;;;;;9.44;100.00;99276.28;10427063;28;20390;-77
2022/11/17 17:38:46;;;;;;;0.77;0.43;;;;;;;9.43;100.00;99272.00;10443328;28;20553;-77
2022/11/17 17:44:02;;;;;;;0.52;0.10;;;;;;;9.48;100.00;99278.03;10444622;28;20531;-75
2022/11/17 17:49:04;;;;;;;0.38;0.30;;;;;;;9.39;100.00;99285.72;10459996;28;20041;-75
2022/11/17 17:54:06;;;;;;;0.20;0.20;;;;;;;9.39;100.00;99296.00;10460644;28;20519;-77
2022/11/17 17:59:08;;;;;;;0.20;0.10;;;;;;;9.49;100.00;99295.16;10460413;28;20048;-76
2022/11/17 18:04:09;;;;;;;0.30;0.20;;;;;;;9.49;100.00;99299.44;10460606;28;20504;-76
2022/11/17 18:09:18;;;;;;;4.15;2.95;;;;;;;9.61;100.00;99304.63;10461087;28;20107;-76
2022/11/17 18:14:22;;;;;;;1.67;1.38;;;;;;;9.57;100.00;99312.34;10443584;28;20047;-76
2022/11/17 18:19:25;;;;;;;1.23;0.88;;;;;;;9.66;100.00;99307.22;10442284;28;20037;-76
2022/11/17 18:24:33;;;;;;;2.60;1.60;;;;;;;9.67;100.00;99321.81;10426074;28;20412;-75
2022/11/17 18:29:35;;;;;;;4.93;3.40;;;;;;;9.76;100.00;99313.25;10459471;28;20083;-75
2022/11/17 18:34:36;;;;;;;1.83;1.50;;;;;;;9.78;100.00;99327.00;10441046;28;20091;-75
2022/11/17 18:39:38;;;;;;;2.97;1.88;;;;;;;9.93;100.00;99315.91;10440920;28;20045;-75
2022/11/17 18:44:39;;;;;;;4.80;2.95;;;;;;;9.66;100.00;99320.09;10424549;28;20049;-75
2022/11/17 18:49:41;;;;;;;3.88;2.60;;;;;;;9.38;100.00;99330.25;10458359;28;20045;-77
2022/11/17 18:54:43;;;;;;;2.15;0.88;;;;;;;9.30;100.00;99347.34;10440591;28;20052;-76
2022/11/17 18:59:45;;;;;;;1.58;0.52;;;;;;;9.21;100.00;99354.13;10459248;28;20041;-76
2022/11/17 19:04:46;;;;;;;2.75;1.50;;;;;;;9.19;100.00;99358.44;10423785;28;20140;-76
2022/11/17 19:09:49;;;;;;;1.55;0.98;;;;;;;9.19;100.00;99362.69;10457684;28;20044;-76
2022/11/17 19:14:50;;;;;;;1.63;0.43;;;;;;;8.92;100.00;99369.34;10457508;28;20040;-77
2022/11/17 19:19:52;;;;;;;2.47;1.70;;;;;;;8.87;100.00;99387.28;10439829;28;20056;-77
2022/11/17 19:24:54;;;;;;;2.05;1.10;;;;;;;8.72;100.00;99397.44;10456988;28;20049;-76
2022/11/17 19:29:55;;;;;;;0.88;0.65;;;;;;;8.72;100.00;99405.13;10439393;28;20045;-77
2022/11/17 19:34:57;;;;;;;0.40;0.17;;;;;;;8.64;100.00;99410.16;10439235;28;20053;-76
2022/11/17 19:40:14;;;;;;;0.77;0.57;;;;;;;8.56;100.00;99417.81;10438934;28;20049;-76
2022/11/17 19:45:16;;;;;;;5.90;2.22;;;;;;;8.44;100.00;99421.91;10438888;28;20558;-76
2022/11/17 19:50:18;;;;;;;1.88;0.50;;;;;;;8.39;100.00;99443.28;10457221;28;20484;-76
2022/11/17 19:55:20;;;;;;;3.13;0.65;;;;;;;8.37;100.00;99446.66;10422398;28;20570;-75
2022/11/17 20:00:21;;;;;;;0.22;0.22;;;;;;;8.51;100.00;99447.72;10438687;28;20504;-75
2022/11/17 20:05:23;;;;;;;1.15;0.60;;;;;;;8.64;100.00;99458.09;10422307;28;20049;-77
2022/11/17 20:10:24;;;;;;;0.17;0.10;;;;;;;8.51;100.00;99460.56;10456269;28;20087;-75
2022/11/17 20:15:26;;;;;;;2.40;0.65;;;;;;;8.48;100.00;99475.91;10438349;28;20056;-75
2022/11/17 20:20:35;;;;;;;1.15;0.60;;;;;;;8.38;100.00;99480.03;10439537;28;20037;-75
2022/11/17 20:25:37;;;;;;;5.57;1.40;;;;;;;8.35;100.00;99502.25;10438755;28;20484;-78
2022/11/17 20:30:40;;;;;;;1.80;0.55;;;;;;;8.32;100.00;99508.19;10438097;28;20045;-78
2022/11/17 20:35:41;;;;;;;0.40;0.10;;;;;;;8.17;100.00;99521.69;10451564;28;20041;-77
2022/11/17 20:40:43;;;;;;;1.45;0.30;;;;;;;8.13;100.00;99537.88;10450649;28;20075;-77
2022/11/17 20:45:44;;;;;;;0.38;0.13;;;;;;;8.13;100.00;99553.28;10445893;28;20106;-77
2022/11/17 20:51:05;;;;;;;0.70;0.30;;;;;;;8.08;100.00;99568.59;10445327;28;20090;-76
2022/11/17 20:56:09;;;;;;;3.63;1.10;;;;;;;8.04;100.00;99568.53;10445108;28;20528;-76
2022/11/17 21:01:13;;;;;;;0.68;0.25;;;;;;;8.04;100.00;99586.47;10445099;28;20123;-77
2022/11/17 21:06:18;;;;;;;0.17;0.17;;;;;;;7.99;100.00;99588.13;10444560;28;20064;-76
2022/11/17 21:16:44;;;;;;;2.50;1.52;;;;;;;7.99;100.00;99606.06;10445155;28;20084;-76
2022/11/17 21:21:52;;;;;;;1.75;1.42;;;;;;;7.90;100.00;99610.22;10444200;28;20079;-76
2022/11/17 21:26:54;;;;;;;1.33;0.50;;;;;;;7.92;100.00;99612.81;10443707;28;20570;-76
2022/11/17 21:31:55;;;;;;;1.00;0.45;;;;;;;7.80;100.00;99623.72;10443416;28;20459;-76
2022/11/17 21:36:57;;;;;;;0.40;0.25;;;;;;;8.49;100.00;99630.78;10443366;28;20107;-77
2022/11/17 21:41:59;;;;;;;0.30;0.30;;;;;;;7.82;100.00;99634.88;10426885;28;20107;-76
2022/11/17 21:47:01;;;;;;;0.15;0.10;;;;;;;7.75;100.00;99645.88;10462143;28;20484;-75
2022/11/17 21:52:03;;;;;;;0.57;0.47;;;;;;;7.74;100.00;99649.25;10426512;28;20037;-76
2022/11/17 21:57:05;;;;;;;0.10;0.10;;;;;;;7.67;100.00;99658.53;10459609;28;20041;-76
2022/11/17 22:02:08;;;;;;;0.15;0.10;;;;;;;7.60;100.00;99662.69;10442667;28;20435;-77
2022/11/17 22:07:10;;;;;;;3.72;1.45;;;;;;;7.56;100.00;99668.59;10460331;28;20060;-77
2022/11/17 22:12:11;;;;;;;0.08;0.00;;;;;;;7.47;100.00;99671.84;10442111;28;20087;-76
2022/11/17 22:17:13;;;;;;;0.30;0.30;;;;;;;7.43;100.00;99676.91;10441895;28;20174;-77
2022/11/17 22:22:14;;;;;;;0.10;0.10;;;;;;;7.45;100.00;99699.16;10441641;28;20052;-76
2022/11/17 22:27:16;;;;;;;0.32;0.32;;;;;;;7.35;100.00;99698.94;10425172;28;20099;-77
2022/11/17 22:32:18;;;;;;;0.00;0.00;;;;;;;7.38;100.00;99701.56;10442256;28;20052;-74
2022/11/17 22:37:20;;;;;;;0.00;0.00;;;;;;;7.43;100.00;99715.34;10441016;28;20128;-78
2022/11/17 22:42:21;;;;;;;0.22;0.22;;;;;;;7.45;100.00;99719.66;10441123;28;20475;-76
2022/11/17 22:47:23;;;;;;;0.43;0.40;;;;;;;7.36;100.00;99726.28;10440738;28;20587;-77
2022/11/17 22:52:24;;;;;;;0.00;0.00;;;;;;;7.35;100.00;99734.81;10449215;28;20041;-77
2022/11/17 22:57:26;;;;;;;0.00;0.00;;;;;;;7.34;100.00;99745.88;10471228;28;20048;-76
2022/11/17 23:02:27;;;;;;;0.65;0.15;;;;;;;7.36;100.00;99741.66;10440345;28;20530;-76
2022/11/17 23:07:29;;;;;;;0.20;0.10;;;;;;;7.44;100.00;99752.94;10440006;28;20057;-76
2022/11/17 23:12:31;;;;;;;0.10;0.10;;;;;;;7.32;100.00;99753.56;10440009;28;20057;-76
2022/11/17 23:17:33;;;;;;;12.15;0.45;;;;;;;7.34;100.00;99767.28;10456342;28;20065;-76
2022/11/17 23:22:35;;;;;;;0.52;0.52;;;;;;;7.35;100.00;99770.69;10439844;28;20120;-76
2022/11/17 23:27:37;;;;;;;0.00;0.00;;;;;;;7.29;100.00;99785.09;10439149;28;20493;-76
2022/11/17 23:32:39;;;;;;;0.95;0.30;;;;;;;7.32;100.00;99793.69;10422811;28;20049;-75
2022/11/17 23:37:40;;;;;;;0.00;0.00;;;;;;;7.32;100.00;99803.94;10458244;28;20041;-76
2022/11/17 23:42:45;;;;;;;0.00;0.00;;;;;;;7.30;100.00;99806.44;10456714;28;20427;-76
2022/11/17 23:47:47;;;;;;;0.00;0.00;;;;;;;7.28;100.00;99814.13;10456799;28;20488;-75
2022/11/17 23:52:49;;;;;;;0.10;0.10;;;;;;;7.45;100.00;99811.06;10438775;28;20045;-77
2022/11/17 23:57:51;;;;;;;0.00;0.00;;;;;;;7.47;100.00;99819.66;10455462;28;20083;-76
